Time;durP1;ratioP1;P1;durP2;ratioP2;P2;SDS_P1;SDS_P2;PMS_P1;PMS_P2;Temp;Humidity;BMP_temperature;BMP_pressure;BME280_temperature;BME280_humidity;BME280_pressure;Samples;Min_cycle;Max_cycle;Signal;HPM_P1;HPM_P2
2023/08/10 00:04:44;;;;;;;3.00;1.33;;;13.70;1.00;;;;;;9971106;29;20229;-79
2023/08/10 00:10:08;;;;;;;5.30;1.83;;;13.70;1.00;;;;;;9969414;29;20216;-79
2023/08/10 00:15:29;;;;;;;3.03;1.45;;;13.60;1.00;;;;;;9969690;29;20243;-80
2023/08/10 00:20:51;;;;;;;3.53;1.65;;;13.60;1.00;;;;;;9982349;29;20211;-79
2023/08/10 00:26:12;;;;;;;2.17;1.50;;;13.50;1.00;;;;;;9956339;29;20234;-80
2023/08/10 00:31:33;;;;;;;4.10;1.95;;;13.50;99.90;;;;;;9932881;29;20242;-80
2023/08/10 00:36:54;;;;;;;3.40;2.20;;;13.40;99.90;;;;;;9970925;29;20324;-80
2023/08/10 00:42:15;;;;;;;4.30;2.40;;;13.30;1.00;;;;;;9956417;29;20208;-79
2023/08/10 00:47:39;;;;;;;6.13;2.40;;;13.30;1.00;;;;;;9964451;29;20241;-79
2023/08/10 00:53:00;;;;;;;2.58;1.52;;;13.30;99.90;;;;;;9986189;29;20551;-80
2023/08/10 00:58:21;;;;;;;2.80;1.58;;;13.20;1.00;;;;;;9968013;29;20261;-80
2023/08/10 01:03:42;;;;;;;3.60;1.70;;;13.20;1.00;;;;;;9968476;29;20201;-79
2023/08/10 01:09:30;;;;;;;4.03;1.70;;;13.20;43.20;;;;;;9952887;29;20227;-79
2023/08/10 01:15:10;;;;;;;3.92;1.40;;;13.30;1.00;;;;;;9955160;29;20215;-80
2023/08/10 01:20:32;;;;;;;2.08;1.35;;;13.30;1.00;;;;;;9932583;29;20210;-80
2023/08/10 01:25:53;;;;;;;3.30;1.80;;;13.30;99.90;;;;;;9961605;29;20260;-79
2023/08/10 01:31:15;;;;;;;2.03;1.40;;;13.40;1.00;;;;;;9941965;29;20213;-79
2023/08/10 01:36:37;;;;;;;3.55;1.25;;;13.50;1.00;;;;;;9939116;29;20243;-79
2023/08/10 01:41:58;;;;;;;2.85;1.38;;;13.50;1.00;;;;;;9954138;29;20317;-79
2023/08/10 01:47:31;;;;;;;3.88;1.52;;;13.50;99.90;;;;;;9972696;29;20324;-79
2023/08/10 01:52:56;;;;;;;2.08;1.35;;;13.50;1.00;;;;;;9971082;29;20216;-79
2023/08/10 01:58:18;;;;;;;4.00;1.50;;;13.60;1.00;;;;;;9953726;29;20231;-80
2023/08/10 02:03:39;;;;;;;2.27;1.10;;;13.60;1.00;;;;;;9965565;29;20293;-79
2023/08/10 02:16:14;;;;;;;5.65;2.72;;;13.60;23.00;;;;;;9942553;29;20200;-80
2023/08/10 02:21:35;;;;;;;2.88;1.60;;;13.50;99.90;;;;;;9962377;29;20217;-80
2023/08/10 02:26:56;;;;;;;3.55;1.75;;;13.50;1.00;;;;;;9951859;29;20266;-80
2023/08/10 02:32:18;;;;;;;3.75;2.10;;;13.50;1.00;;;;;;9953207;29;20221;-79
2023/08/10 02:37:39;;;;;;;3.08;1.70;;;13.50;1.00;;;;;;9964770;29;20301;-79
2023/08/10 02:43:00;;;;;;;3.50;2.35;;;13.50;1.00;;;;;;9953484;29;20521;-80
2023/08/10 02:48:22;;;;;;;4.07;3.03;;;13.50;1.00;;;;;;9979527;29;20235;-80
2023/08/10 02:53:45;;;;;;;4.25;2.25;;;13.50;1.00;;;;;;9932844;29;20216;-79
2023/08/10 02:59:06;;;;;;;4.28;2.60;;;13.50;1.00;;;;;;9958110;29;20292;-79
2023/08/10 03:04:27;;;;;;;5.05;1.80;;;13.50;1.00;;;;;;9978539;29;20224;-79
2023/08/10 03:09:50;;;;;;;3.63;1.85;;;13.40;1.00;;;;;;9977456;29;20215;-79
2023/08/10 03:15:15;;;;;;;3.08;1.52;;;13.40;99.90;;;;;;9951525;29;20404;-79
2023/08/10 03:20:37;;;;;;;4.30;1.85;;;13.30;1.00;;;;;;9950970;29;20391;-81
2023/08/10 03:25:58;;;;;;;3.95;1.90;;;13.40;99.90;;;;;;9951422;29;20540;-79
2023/08/10 03:31:19;;;;;;;3.05;1.45;;;13.40;99.90;;;;;;9963783;29;20235;-81
2023/08/10 03:36:40;;;;;;;1.63;1.20;;;13.50;1.00;;;;;;9950889;29;20246;-80
2023/08/10 03:42:03;;;;;;;3.60;1.52;;;13.50;1.00;;;;;;9971479;29;20216;-79
2023/08/10 03:47:24;;;;;;;2.22;1.20;;;13.50;1.00;;;;;;9977749;29;20231;-80
2023/08/10 03:52:46;;;;;;;2.35;1.27;;;13.50;1.00;;;;;;9979384;29;20264;-80
2023/08/10 03:58:08;;;;;;;3.65;1.60;;;13.40;99.90;;;;;;9957681;29;20219;-79
2023/08/10 04:03:29;;;;;;;2.72;1.40;;;13.40;1.00;;;;;;9957552;29;20208;-80
2023/08/10 04:08:51;;;;;;;2.55;1.60;;;13.40;1.00;;;;;;9968898;29;20490;-79
2023/08/10 04:14:12;;;;;;;3.10;1.40;;;13.50;1.00;;;;;;9957051;29;20215;-79
2023/08/10 04:19:33;;;;;;;2.20;1.42;;;13.50;29.30;;;;;;9955281;29;20251;-79
2023/08/10 04:24:55;;;;;;;3.10;1.88;;;13.50;99.90;;;;;;9944292;29;20227;-79
2023/08/10 04:30:16;;;;;;;4.40;1.85;;;13.50;1.00;;;;;;9969152;29;20400;-80
2023/08/10 04:35:38;;;;;;;2.80;1.90;;;13.60;99.90;;;;;;9968039;29;20259;-79
2023/08/10 04:40:59;;;;;;;3.80;1.60;;;13.60;1.00;;;;;;9969230;29;20210;-79
2023/08/10 04:46:20;;;;;;;5.38;2.78;;;13.70;1.00;;;;;;9968706;29;20235;-79
2023/08/10 04:51:42;;;;;;;2.58;1.77;;;13.70;99.90;;;;;;9968079;29;20211;-79
2023/08/10 04:57:04;;;;;;;2.50;1.58;;;13.80;1.00;;;;;;9968590;29;20210;-79
2023/08/10 05:02:25;;;;;;;3.13;2.13;;;13.90;99.90;;;;;;9968405;29;20204;-80
2023/08/10 05:07:46;;;;;;;3.05;1.75;;;14.00;99.90;;;;;;9955186;29;20283;-79
2023/08/10 05:13:07;;;;;;;4.25;1.70;;;14.10;1.00;;;;;;9955133;29;20211;-79
2023/08/10 05:18:29;;;;;;;3.15;1.90;;;14.20;45.60;;;;;;9966173;29;20458;-80
2023/08/10 05:23:50;;;;;;;5.25;2.40;;;14.10;1.00;;;;;;9967383;29;20280;-79
2023/08/10 05:29:11;;;;;;;5.22;3.05;;;14.00;1.00;;;;;;9941697;29;20233;-79
2023/08/10 05:34:33;;;;;;;8.98;3.63;;;14.10;1.00;;;;;;9964216;29;20217;-80
2023/08/10 05:39:54;;;;;;;7.50;3.70;;;14.20;1.00;;;;;;9966764;29;20234;-80
2023/08/10 05:45:18;;;;;;;3.88;2.22;;;14.20;1.00;;;;;;9966252;29;20215;-79
2023/08/10 05:50:41;;;;;;;3.88;1.55;;;14.20;99.90;;;;;;9960783;29;20294;-79
2023/08/10 05:56:03;;;;;;;5.07;1.58;;;14.20;68.70;;;;;;9940569;29;20295;-79
2023/08/10 06:01:27;;;;;;;5.13;2.33;;;14.20;1.00;;;;;;9978267;29;20229;-79
2023/08/10 06:06:48;;;;;;;7.15;2.75;;;14.30;1.00;;;;;;9951871;29;20237;-80
2023/08/10 06:12:10;;;;;;;7.10;2.90;;;14.50;18.40;;;;;;9966880;29;20204;-82
2023/08/10 06:17:31;;;;;;;4.95;2.72;;;14.60;99.90;;;;;;9965001;29;20201;-78
2023/08/10 06:22:53;;;;;;;5.43;2.22;;;14.70;99.90;;;;;;9915470;30;20202;-81
2023/08/10 06:28:15;;;;;;;5.53;1.92;;;14.80;1.00;;;;;;9915107;30;20238;-80
2023/08/10 06:33:37;;;;;;;5.38;1.90;;;15.00;99.90;;;;;;9927163;29;20210;-80
2023/08/10 06:38:58;;;;;;;4.00;1.88;;;15.00;1.00;;;;;;9977981;29;20527;-81
2023/08/10 06:44:20;;;;;;;4.10;2.00;;;15.20;99.90;;;;;;9952194;29;20193;-80
2023/08/10 06:49:41;;;;;;;5.72;1.90;;;15.20;1.00;;;;;;9963812;29;20238;-80
2023/08/10 06:55:03;;;;;;;4.65;2.08;;;15.20;1.00;;;;;;9951616;29;20489;-81
2023/08/10 07:00:26;;;;;;;8.20;2.30;;;15.20;99.90;;;;;;9951360;29;20210;-79
2023/08/10 07:05:50;;;;;;;6.95;2.28;;;15.30;99.90;;;;;;9964204;29;20459;-81
2023/08/10 07:11:11;;;;;;;2.75;1.60;;;15.30;99.90;;;;;;9965804;29;20392;-79
2023/08/10 07:16:32;;;;;;;7.32;2.08;;;15.50;99.90;;;;;;9957620;29;20270;-80
2023/08/10 07:21:55;;;;;;;42.85;14.60;;;15.70;1.00;;;;;;9970609;29;20267;-81
2023/08/10 07:27:17;;;;;;;4.97;2.28;;;16.00;1.00;;;;;;9941185;29;20253;-80
2023/08/10 07:32:43;;;;;;;11.57;3.35;;;16.60;99.90;;;;;;9969842;29;20247;-84
2023/08/10 07:38:05;;;;;;;6.63;2.35;;;17.30;1.00;;;;;;9957848;29;20406;-81
2023/08/10 07:43:26;;;;;;;6.63;1.42;;;17.30;1.00;;;;;;9928738;29;20273;-82
2023/08/10 07:48:48;;;;;;;6.75;2.03;;;17.30;99.90;;;;;;9955088;29;20426;-81
2023/08/10 07:54:10;;;;;;;7.60;2.30;;;17.20;99.90;;;;;;9965606;29;20240;-82
2023/08/10 07:59:31;;;;;;;8.73;1.98;;;17.20;99.90;;;;;;9951112;29;20433;-79
2023/08/10 08:04:52;;;;;;;6.80;1.67;;;17.20;99.90;;;;;;9962721;29;20215;-82
2023/08/10 08:10:13;;;;;;;3.50;1.42;;;17.30;99.90;;;;;;9964036;29;20305;-82
2023/08/10 08:15:34;;;;;;;10.23;4.25;;;17.40;99.90;;;;;;9949251;29;20560;-83
2023/08/10 08:20:57;;;;;;;16.08;4.03;;;17.40;99.90;;;;;;9951043;29;20440;-81
2023/08/10 08:26:19;;;;;;;7.38;1.95;;;17.30;99.90;;;;;;9930896;29;20227;-91
2023/08/10 08:31:40;;;;;;;4.57;1.90;;;17.40;99.90;;;;;;9961630;29;20338;-86
2023/08/10 08:37:02;;;;;;;4.65;1.63;;;17.50;7.70;;;;;;9963871;29;20314;-83
2023/08/10 08:42:24;;;;;;;6.50;2.30;;;17.40;1.00;;;;;;9964298;29;20251;-80
2023/08/10 08:47:46;;;;;;;8.43;1.90;;;17.60;1.00;;;;;;9972394;29;20238;-83
2023/08/10 08:53:08;;;;;;;8.27;1.83;;;17.70;1.00;;;;;;9982804;29;20295;-82
2023/08/10 08:58:31;;;;;;;3.78;1.65;;;17.70;1.00;;;;;;9952731;29;20212;-82
2023/08/10 09:03:53;;;;;;;7.75;2.30;;;17.80;1.00;;;;;;9931770;29;20228;-79
2023/08/10 09:09:14;;;;;;;4.60;1.38;;;17.90;1.00;;;;;;9960773;29;20244;-82
2023/08/10 09:14:35;;;;;;;7.07;1.92;;;18.00;1.00;;;;;;9966216;29;20287;-81
2023/08/10 09:19:57;;;;;;;7.35;1.77;;;18.30;1.00;;;;;;9961059;29;20260;-85
2023/08/10 09:25:18;;;;;;;4.65;1.40;;;18.30;1.00;;;;;;9946052;29;20223;-80
2023/08/10 09:30:41;;;;;;;4.63;1.90;;;18.30;1.00;;;;;;9963791;29;20274;-83
2023/08/10 09:36:04;;;;;;;6.57;1.40;;;18.20;1.00;;;;;;9954241;29;20442;-81
2023/08/10 09:41:25;;;;;;;10.57;1.80;;;18.20;1.00;;;;;;9961426;29;20203;-79
2023/08/10 09:46:55;;;;;;;5.75;1.67;;;18.40;1.00;;;;;;9961710;29;20266;-79
2023/08/10 09:52:16;;;;;;;5.75;1.80;;;18.70;1.00;;;;;;9984070;29;20258;-82
2023/08/10 09:57:44;;;;;;;10.73;1.88;;;18.90;1.00;;;;;;9976410;29;20212;-83
2023/08/10 10:03:05;;;;;;;5.15;1.65;;;18.60;1.00;;;;;;9973354;29;20212;-81
2023/08/10 10:08:29;;;;;;;7.38;1.88;;;18.60;1.00;;;;;;9968864;29;20240;-84
2023/08/10 10:13:51;;;;;;;4.68;1.45;;;18.90;1.00;;;;;;9990398;29;20295;-83
2023/08/10 10:19:12;;;;;;;5.82;1.75;;;19.60;1.00;;;;;;9982774;29;20220;-82
2023/08/10 10:24:38;;;;;;;6.07;2.00;;;19.90;1.00;;;;;;9949916;29;20200;-81
2023/08/10 10:29:59;;;;;;;6.97;2.15;;;19.60;1.00;;;;;;9959240;29;20396;-86
2023/08/10 10:35:32;;;;;;;8.57;2.03;;;19.30;1.00;;;;;;9984657;29;20524;-84
2023/08/10 10:40:53;;;;;;;7.10;2.15;;;19.30;1.00;;;;;;9997490;29;20355;-82
2023/08/10 10:46:33;;;;;;;4.80;1.38;;;19.40;1.00;;;;;;9984141;29;20278;-84
2023/08/10 10:52:00;;;;;;;5.20;1.98;;;19.70;1.00;;;;;;9971410;29;20216;-92
2023/08/10 10:57:22;;;;;;;3.10;1.60;;;20.00;1.00;;;;;;9966555;29;20209;-87
2023/08/10 11:02:43;;;;;;;11.15;4.38;;;20.10;1.00;;;;;;9957753;29;20268;-81
2023/08/10 11:08:05;;;;;;;5.65;1.92;;;20.30;1.00;;;;;;9994539;29;20296;-84
2023/08/10 11:13:28;;;;;;;14.43;1.77;;;20.70;1.00;;;;;;9994836;29;20539;-81
2023/08/10 11:18:50;;;;;;;4.00;1.75;;;20.90;1.00;;;;;;9946870;29;20245;-83
2023/08/10 11:24:12;;;;;;;3.65;1.20;;;20.70;1.00;;;;;;9960291;29;20266;-81
2023/08/10 11:29:34;;;;;;;2.53;1.13;;;20.60;1.00;;;;;;9958565;29;20299;-85
2023/08/10 11:34:57;;;;;;;2.67;1.50;;;20.50;1.00;;;;;;9954881;29;20247;-86
2023/08/10 11:40:20;;;;;;;5.72;1.50;;;20.40;1.00;;;;;;10008877;29;20219;-79
2023/08/10 11:45:42;;;;;;;2.10;1.15;;;20.50;1.00;;;;;;9983042;29;20577;-85
2023/08/10 11:51:05;;;;;;;9.07;1.63;;;20.30;1.00;;;;;;9978413;29;20220;-81
2023/08/10 11:56:32;;;;;;;4.78;1.40;;;20.00;1.00;;;;;;9983578;29;20317;-85
2023/08/10 12:01:57;;;;;;;5.28;1.42;;;19.80;1.00;;;;;;9929894;29;20212;-83
2023/08/10 12:07:22;;;;;;;5.95;1.23;;;19.70;1.00;;;;;;9982823;29;20259;-83
2023/08/10 12:12:45;;;;;;;4.13;1.75;;;19.40;1.00;;;;;;9981647;29;20244;-82
2023/08/10 12:18:10;;;;;;;3.47;1.30;;;19.40;1.00;;;;;;9959577;29;20464;-93
2023/08/10 12:23:31;;;;;;;7.75;2.28;;;19.50;1.00;;;;;;9983796;29;20216;-91
2023/08/10 12:28:53;;;;;;;4.20;1.15;;;19.50;1.00;;;;;;9998965;29;20236;-83
2023/08/10 12:34:14;;;;;;;5.35;1.60;;;19.60;1.00;;;;;;9953713;29;20212;-89
2023/08/10 12:39:35;;;;;;;5.10;1.25;;;19.50;1.00;;;;;;9998084;29;20279;-84
2023/08/10 12:44:57;;;;;;;3.60;1.67;;;19.40;1.00;;;;;;9984591;29;20224;-86
2023/08/10 12:50:19;;;;;;;7.28;1.80;;;19.30;1.00;;;;;;9988058;29;20557;-85
2023/08/10 12:55:40;;;;;;;10.73;1.60;;;19.60;1.00;;;;;;10000573;29;20207;-80
2023/08/10 13:01:01;;;;;;;4.82;1.45;;;20.20;1.00;;;;;;9965743;29;20288;-82
2023/08/10 13:06:22;;;;;;;2.97;1.20;;;20.40;1.00;;;;;;9938604;29;20237;-86
2023/08/10 13:11:44;;;;;;;5.15;1.58;;;20.10;1.00;;;;;;9974021;29;20312;-84
2023/08/10 13:17:06;;;;;;;6.75;1.98;;;20.10;1.00;;;;;;9951839;29;20560;-81
2023/08/10 13:22:34;;;;;;;5.47;1.95;;;20.20;1.00;;;;;;9991628;29;20208;-81
2023/08/10 13:27:57;;;;;;;5.80;1.40;;;20.00;1.00;;;;;;9962193;29;20581;-83
2023/08/10 13:33:18;;;;;;;9.52;3.70;;;19.90;1.00;;;;;;9985558;29;20231;-80
2023/08/10 13:38:39;;;;;;;4.60;1.63;;;19.80;1.00;;;;;;10000167;29;20232;-81
2023/08/10 13:44:00;;;;;;;7.72;1.13;;;19.80;1.00;;;;;;10000012;29;20204;-81
2023/08/10 13:49:24;;;;;;;5.72;1.17;;;19.70;1.00;;;;;;9980032;29;20244;-81
2023/08/10 13:54:45;;;;;;;5.88;1.45;;;19.70;1.00;;;;;;9986811;29;20389;-81
2023/08/10 14:00:07;;;;;;;4.20;1.48;;;19.80;1.00;;;;;;9960089;29;20549;-83
2023/08/10 14:05:29;;;;;;;4.55;1.30;;;20.00;1.00;;;;;;9960503;29;20221;-83
2023/08/10 14:10:51;;;;;;;3.33;1.30;;;20.00;1.00;;;;;;9962958;29;20287;-90
2023/08/10 14:16:12;;;;;;;4.22;1.48;;;20.10;1.00;;;;;;9947919;29;20407;-86
2023/08/10 14:21:33;;;;;;;3.78;1.65;;;20.10;1.00;;;;;;9961570;29;20237;-80
2023/08/10 14:26:55;;;;;;;4.45;1.55;;;20.20;1.00;;;;;;9960412;29;20230;-79
2023/08/10 14:32:16;;;;;;;6.93;1.58;;;20.20;1.00;;;;;;9926097;29;20307;-80
2023/08/10 14:37:37;;;;;;;8.85;2.53;;;20.10;1.00;;;;;;9997843;29;20240;-85
2023/08/10 14:42:58;;;;;;;3.30;1.30;;;20.00;1.00;;;;;;9983801;29;20477;-81
2023/08/10 14:48:20;;;;;;;6.32;1.95;;;19.90;1.00;;;;;;9937101;29;20569;-84
2023/08/10 14:53:41;;;;;;;6.07;1.90;;;19.80;1.00;;;;;;9937701;29;20205;-83
2023/08/10 14:59:03;;;;;;;4.18;1.40;;;19.60;1.00;;;;;;9973171;29;20265;-82
2023/08/10 15:04:24;;;;;;;2.15;1.17;;;19.50;1.00;;;;;;9899110;30;20209;-86
2023/08/10 15:09:45;;;;;;;3.47;1.30;;;19.50;1.00;;;;;;9915546;29;20297;-83
2023/08/10 15:15:08;;;;;;;3.50;1.40;;;19.50;1.00;;;;;;9941114;29;20550;-84
2023/08/10 15:20:29;;;;;;;2.97;1.40;;;19.50;1.00;;;;;;9988914;29;20241;-84
2023/08/10 15:25:51;;;;;;;3.35;1.35;;;19.60;1.00;;;;;;9999986;29;20306;-81
2023/08/10 15:31:12;;;;;;;5.75;1.90;;;19.60;1.00;;;;;;9999490;29;20252;-79
2023/08/10 15:36:33;;;;;;;2.53;1.38;;;19.50;1.00;;;;;;9999590;29;20335;-83
2023/08/10 15:41:56;;;;;;;3.10;1.15;;;19.30;1.00;;;;;;10001357;29;20204;-81
2023/08/10 15:47:17;;;;;;;3.97;1.23;;;19.10;1.00;;;;;;10008919;29;20235;-79
2023/08/10 15:52:38;;;;;;;10.60;2.33;;;18.90;1.00;;;;;;10004033;29;20208;-84
2023/08/10 15:58:01;;;;;;;2.58;1.45;;;18.90;1.00;;;;;;9997087;29;20204;-82
2023/08/10 16:03:22;;;;;;;3.33;1.08;;;18.80;1.00;;;;;;9971868;29;20529;-79
2023/08/10 16:08:43;;;;;;;3.00;1.35;;;18.90;1.00;;;;;;9962021;29;20251;-79
2023/08/10 16:14:04;;;;;;;3.67;1.20;;;18.90;1.00;;;;;;9971101;29;20275;-83
2023/08/10 16:19:27;;;;;;;3.80;1.30;;;18.90;1.00;;;;;;9971175;29;20201;-84
2023/08/10 16:24:48;;;;;;;3.88;1.60;;;18.80;1.00;;;;;;9968223;29;20205;-84
2023/08/10 16:30:09;;;;;;;4.57;1.35;;;18.70;1.00;;;;;;9970102;29;20250;-80
2023/08/10 16:35:30;;;;;;;3.05;1.58;;;18.60;1.00;;;;;;9967528;29;20274;-82
2023/08/10 16:40:51;;;;;;;4.15;1.73;;;18.50;1.00;;;;;;9969703;29;20196;-84
2023/08/10 16:46:13;;;;;;;4.60;1.30;;;18.30;1.00;;;;;;9968349;29;20560;-80
2023/08/10 16:51:34;;;;;;;3.58;1.33;;;18.20;1.00;;;;;;9974032;29;20239;-80
2023/08/10 16:56:56;;;;;;;2.83;1.17;;;18.10;1.00;;;;;;10003117;29;20200;-80
2023/08/10 17:02:17;;;;;;;6.70;1.85;;;18.10;1.00;;;;;;9964417;29;20216;-83
2023/08/10 17:07:38;;;;;;;2.92;1.40;;;18.10;1.00;;;;;;9967530;29;20235;-79
2023/08/10 17:12:59;;;;;;;3.17;2.03;;;18.00;1.00;;;;;;9980792;29;20243;-80
2023/08/10 17:18:21;;;;;;;4.45;2.00;;;17.90;1.00;;;;;;9968786;29;20399;-84
2023/08/10 17:23:44;;;;;;;3.40;1.83;;;17.90;1.00;;;;;;9967244;29;20395;-82
2023/08/10 17:29:05;;;;;;;8.00;1.95;;;17.80;1.00;;;;;;9967392;29;20273;-79
2023/08/10 17:34:34;;;;;;;3.95;1.50;;;17.70;1.00;;;;;;9966270;29;20482;-79
2023/08/10 17:39:55;;;;;;;4.50;1.90;;;17.60;1.00;;;;;;9934552;29;20215;-79
2023/08/10 17:45:17;;;;;;;3.88;2.10;;;17.40;1.00;;;;;;9967935;29;20206;-79
2023/08/10 17:50:38;;;;;;;7.15;3.03;;;17.30;1.00;;;;;;9955264;29;20432;-79
2023/08/10 17:56:00;;;;;;;8.95;4.50;;;17.30;1.00;;;;;;10003313;29;20195;-79
2023/08/10 18:01:21;;;;;;;8.38;4.75;;;17.20;1.00;;;;;;9964835;29;20279;-79
2023/08/10 18:06:43;;;;;;;8.18;3.75;;;17.10;1.00;;;;;;9965693;29;20238;-79
2023/08/10 18:12:05;;;;;;;8.07;3.78;;;17.00;1.00;;;;;;9980882;29;20249;-78
2023/08/10 18:17:26;;;;;;;10.55;5.32;;;16.90;99.90;;;;;;9960508;29;20296;-79
2023/08/10 18:22:47;;;;;;;9.82;4.38;;;16.80;99.90;;;;;;9978508;29;20193;-80
2023/08/10 18:28:09;;;;;;;10.30;5.88;;;16.70;99.90;;;;;;9965427;29;20548;-79
2023/08/10 18:33:30;;;;;;;9.05;6.13;;;16.70;99.90;;;;;;9963734;29;20212;-80
2023/08/10 18:38:51;;;;;;;11.93;5.82;;;16.60;99.90;;;;;;9951836;29;20443;-79
2023/08/10 18:44:13;;;;;;;11.23;6.13;;;16.50;1.00;;;;;;9965919;29;20198;-83
2023/08/10 18:49:34;;;;;;;12.18;6.85;;;16.50;1.00;;;;;;9964163;29;20260;-78
2023/08/10 18:54:55;;;;;;;14.48;8.63;;;16.30;1.00;;;;;;9965000;29;20207;-81
2023/08/10 19:00:18;;;;;;;29.00;15.68;;;16.20;1.00;;;;;;9955834;29;20213;-80
2023/08/10 19:05:41;;;;;;;23.98;14.10;;;16.00;1.00;;;;;;9988673;29;20412;-80
2023/08/10 19:11:02;;;;;;;20.15;11.65;;;16.00;99.90;;;;;;10002024;29;20249;-79
2023/08/10 19:16:23;;;;;;;23.08;12.48;;;15.90;1.00;;;;;;9990996;29;20282;-80
2023/08/10 19:21:45;;;;;;;42.55;17.63;;;15.80;99.90;;;;;;9972500;29;20207;-79
2023/08/10 19:27:05;;;;;;;35.20;15.85;;;15.80;99.90;;;;;;9991925;29;20223;-82
2023/08/10 19:32:27;;;;;;;56.15;25.85;;;15.70;99.90;;;;;;9971313;29;20208;-78
2023/08/10 19:37:48;;;;;;;75.82;35.40;;;15.70;1.00;;;;;;9971566;29;20242;-79
2023/08/10 19:43:09;;;;;;;59.40;26.38;;;15.70;1.00;;;;;;9981300;29;20215;-78
2023/08/10 19:48:31;;;;;;;44.78;20.92;;;15.70;1.00;;;;;;9971690;29;20227;-79
2023/08/10 19:53:53;;;;;;;37.13;16.98;;;15.60;1.00;;;;;;9970748;29;20198;-79
2023/08/10 19:59:14;;;;;;;28.20;15.80;;;15.60;1.00;;;;;;9971257;29;20377;-80
2023/08/10 20:04:37;;;;;;;22.58;13.15;;;15.50;11.00;;;;;;9998961;29;20209;-78
2023/08/10 20:09:58;;;;;;;30.83;16.30;;;15.50;99.90;;;;;;9970099;29;20239;-78
2023/08/10 20:15:20;;;;;;;35.13;18.25;;;15.50;99.90;;;;;;9983657;29;20237;-78
2023/08/10 20:20:44;;;;;;;32.63;18.00;;;15.50;1.00;;;;;;10006426;29;20203;-78
2023/08/10 20:26:05;;;;;;;25.55;14.77;;;15.50;1.00;;;;;;10004041;29;20529;-78
2023/08/10 20:31:26;;;;;;;18.73;11.48;;;15.50;99.90;;;;;;9970713;29;20237;-79
2023/08/10 20:36:47;;;;;;;16.50;9.90;;;15.40;1.00;;;;;;10006373;29;20465;-79
2023/08/10 20:42:08;;;;;;;19.17;11.55;;;15.40;60.80;;;;;;9992952;29;20246;-79
2023/08/10 20:47:33;;;;;;;28.63;10.43;;;15.30;1.00;;;;;;9968836;29;20431;-78
2023/08/10 20:52:54;;;;;;;21.48;11.50;;;15.20;46.80;;;;;;9969842;29;20245;-79
2023/08/10 20:58:15;;;;;;;18.80;8.75;;;15.10;99.90;;;;;;9967246;29;20211;-78
2023/08/10 21:03:38;;;;;;;12.32;7.40;;;15.20;1.00;;;;;;9967794;29;20218;-79
2023/08/10 21:09:00;;;;;;;15.52;8.20;;;15.20;22.30;;;;;;10001080;29;20279;-78
2023/08/10 21:14:22;;;;;;;19.02;8.82;;;15.30;1.00;;;;;;9983891;29;20215;-78
2023/08/10 21:19:43;;;;;;;17.63;10.10;;;15.20;81.30;;;;;;9968962;29;20407;-80
2023/08/10 21:25:05;;;;;;;18.90;10.68;;;15.30;1.00;;;;;;9967144;29;20212;-79
2023/08/10 21:30:26;;;;;;;21.85;11.68;;;15.20;99.90;;;;;;9953794;29;20237;-78
2023/08/10 21:35:47;;;;;;;17.70;10.43;;;15.20;1.00;;;;;;9952722;29;20420;-79
2023/08/10 21:41:09;;;;;;;17.10;9.55;;;15.20;1.00;;;;;;9968167;29;20211;-79
2023/08/10 21:46:30;;;;;;;18.38;7.90;;;15.20;1.00;;;;;;9962583;29;20335;-78
2023/08/10 21:51:51;;;;;;;16.67;9.10;;;15.20;1.00;;;;;;9966251;29;20264;-79
2023/08/10 21:57:12;;;;;;;12.68;7.93;;;15.10;99.90;;;;;;9966410;29;20257;-78
2023/08/10 22:02:34;;;;;;;11.25;7.47;;;15.00;1.00;;;;;;9967161;29;20206;-79
2023/08/10 22:07:55;;;;;;;11.88;6.80;;;15.10;99.90;;;;;;9980790;29;20554;-78
2023/08/10 22:13:17;;;;;;;12.68;6.97;;;15.00;1.00;;;;;;9966046;29;20198;-79
2023/08/10 22:18:38;;;;;;;12.07;7.28;;;15.00;1.00;;;;;;9934376;29;20264;-79
2023/08/10 22:23:59;;;;;;;13.05;7.20;;;15.00;1.00;;;;;;9929551;29;20198;-80
2023/08/10 22:29:20;;;;;;;15.45;8.30;;;14.90;1.00;;;;;;9954112;29;20238;-80
2023/08/10 22:34:41;;;;;;;11.73;7.32;;;14.90;1.00;;;;;;9966486;29;20271;-79
2023/08/10 22:40:05;;;;;;;11.68;7.53;;;14.80;1.00;;;;;;9964673;29;20206;-80
2023/08/10 22:45:26;;;;;;;10.98;6.72;;;14.80;99.90;;;;;;9964589;29;20207;-79
2023/08/10 22:50:47;;;;;;;10.35;5.82;;;14.70;99.90;;;;;;9966204;29;20241;-79
2023/08/10 22:56:10;;;;;;;12.65;6.20;;;14.70;99.90;;;;;;9965030;29;20212;-80
2023/08/10 23:01:31;;;;;;;13.10;7.25;;;14.70;1.00;;;;;;9965728;29;20520;-77
2023/08/10 23:06:52;;;;;;;10.27;6.57;;;14.70;1.00;;;;;;9980725;29;20215;-77
2023/08/10 23:12:13;;;;;;;12.73;7.03;;;14.70;99.90;;;;;;9974564;29;20214;-77
2023/08/10 23:17:34;;;;;;;15.80;8.70;;;14.70;1.00;;;;;;9965974;29;20399;-78
2023/08/10 23:22:56;;;;;;;15.23;9.45;;;14.60;99.90;;;;;;9965365;29;20201;-81
2023/08/10 23:28:17;;;;;;;23.08;11.00;;;14.60;99.90;;;;;;9964157;29;20253;-78
2023/08/10 23:33:39;;;;;;;14.95;9.15;;;14.50;99.90;;;;;;9965047;29;20255;-79
2023/08/10 23:39:00;;;;;;;11.70;7.35;;;14.40;1.00;;;;;;9950314;29;20726;-79
2023/08/10 23:44:23;;;;;;;11.05;6.45;;;14.40;1.00;;;;;;9961132;29;20210;-79
2023/08/10 23:49:44;;;;;;;10.38;5.97;;;14.40;1.00;;;;;;9938648;29;20518;-80
2023/08/10 23:55:08;;;;;;;10.23;5.60;;;14.40;1.00;;;;;;9968760;29;20279;-85
